Hazel Green, Wisconsin
Current Conditions -  °F | °C
As of 3:15 AM on Monday 24 Nov 2014 (Local Time) from KPVB Reporting Station
Overcast Overcast  
Wind Chill: 30°   Ceiling: 400
Heat Index: 39°   Visibility: 10mi
Dew Point: 38°   Wind: 15mph
Humidity: 98%   Direction: 300°WNW
Pressure: 29.13"   Gusts: 23mph
Location:  42.53°N, 90.43°W
Report Text: KPVB 240915Z AUTO 30013G20KT 10SM OVC004 04/04 A2913 RMK AO1 T00380035
Loading
Personal Weather Stations






























Interactive Weather Map New forecast layout! Learn more

10-Day Weather Forecast

Advertisements
Track Severe Weather on mobile